sensor_id;sensor_type;location;lat;lon;timestamp;temperature;humidity
27667;DHT22;15074;50.940;5.282;2022-08-07T00:00:46;15.90;99.90
27667;DHT22;15074;50.940;5.282;2022-08-07T00:03:12;15.90;99.90
27667;DHT22;15074;50.940;5.282;2022-08-07T00:05:38;15.90;99.90
27667;DHT22;15074;50.940;5.282;2022-08-07T00:08:04;15.80;99.90
27667;DHT22;15074;50.940;5.282;2022-08-07T00:10:30;15.60;99.90
27667;DHT22;15074;50.940;5.282;2022-08-07T00:12:58;15.70;99.90
27667;DHT22;15074;50.940;5.282;2022-08-07T00:15:24;15.70;99.90
27667;DHT22;15074;50.940;5.282;2022-08-07T00:17:50;15.70;99.90
27667;DHT22;15074;50.940;5.282;2022-08-07T00:20:16;15.60;99.90
27667;DHT22;15074;50.940;5.282;2022-08-07T00:22:42;15.60;99.90
27667;DHT22;15074;50.940;5.282;2022-08-07T00:25:08;15.70;99.90
27667;DHT22;15074;50.940;5.282;2022-08-07T00:27:34;15.70;99.90
27667;DHT22;15074;50.940;5.282;2022-08-07T00:30:01;15.70;99.90
27667;DHT22;15074;50.940;5.282;2022-08-07T00:32:27;15.60;99.90
27667;DHT22;15074;50.940;5.282;2022-08-07T00:34:52;15.60;99.90
27667;DHT22;15074;50.940;5.282;2022-08-07T00:37:18;15.60;99.90
27667;DHT22;15074;50.940;5.282;2022-08-07T00:39:44;15.50;99.90
27667;DHT22;15074;50.940;5.282;2022-08-07T00:42:10;15.50;99.90
27667;DHT22;15074;50.940;5.282;2022-08-07T00:44:36;15.40;99.90
27667;DHT22;15074;50.940;5.282;2022-08-07T00:47:03;15.40;99.90
27667;DHT22;15074;50.940;5.282;2022-08-07T00:49:29;15.30;99.90
27667;DHT22;15074;50.940;5.282;2022-08-07T00:51:55;15.10;99.90
27667;DHT22;15074;50.940;5.282;2022-08-07T00:54:21;15.10;99.90
27667;DHT22;15074;50.940;5.282;2022-08-07T00:56:48;14.90;99.90
27667;DHT22;15074;50.940;5.282;2022-08-07T00:59:13;15.00;99.90
27667;DHT22;15074;50.940;5.282;2022-08-07T01:01:40;15.10;99.90
27667;DHT22;15074;50.940;5.282;2022-08-07T01:04:07;15.10;99.90
27667;DHT22;15074;50.940;5.282;2022-08-07T01:06:33;15.00;99.90
27667;DHT22;15074;50.940;5.282;2022-08-07T01:09:00;14.70;99.90
27667;DHT22;15074;50.940;5.282;2022-08-07T01:11:26;14.20;99.90
27667;DHT22;15074;50.940;5.282;2022-08-07T01:13:52;13.90;99.90
27667;DHT22;15074;50.940;5.282;2022-08-07T01:16:18;13.90;99.90
27667;DHT22;15074;50.940;5.282;2022-08-07T01:18:44;14.10;99.90
27667;DHT22;15074;50.940;5.282;2022-08-07T01:21:15;14.10;99.90
27667;DHT22;15074;50.940;5.282;2022-08-07T01:23:43;14.10;99.90
27667;DHT22;15074;50.940;5.282;2022-08-07T01:26:10;13.80;99.90
27667;DHT22;15074;50.940;5.282;2022-08-07T01:28:38;13.50;99.90
27667;DHT22;15074;50.940;5.282;2022-08-07T01:31:04;13.60;99.90
27667;DHT22;15074;50.940;5.282;2022-08-07T01:33:30;13.70;99.90
27667;DHT22;15074;50.940;5.282;2022-08-07T01:35:57;13.70;99.90
27667;DHT22;15074;50.940;5.282;2022-08-07T01:38:25;13.70;99.90
27667;DHT22;15074;50.940;5.282;2022-08-07T01:40:59;13.80;99.90
27667;DHT22;15074;50.940;5.282;2022-08-07T01:43:26;13.90;99.90
27667;DHT22;15074;50.940;5.282;2022-08-07T01:45:52;13.70;99.90
27667;DHT22;15074;50.940;5.282;2022-08-07T01:48:19;13.30;99.90
27667;DHT22;15074;50.940;5.282;2022-08-07T01:50:48;13.30;99.90
27667;DHT22;15074;50.940;5.282;2022-08-07T01:53:16;13.30;99.90
27667;DHT22;15074;50.940;5.282;2022-08-07T01:55:45;13.20;99.90
27667;DHT22;15074;50.940;5.282;2022-08-07T01:58:14;13.30;99.90
27667;DHT22;15074;50.940;5.282;2022-08-07T02:00:43;13.50;99.90
27667;DHT22;15074;50.940;5.282;2022-08-07T02:03:13;13.50;99.90
27667;DHT22;15074;50.940;5.282;2022-08-07T02:05:56;13.60;99.90
27667;DHT22;15074;50.940;5.282;2022-08-07T02:08:24;13.60;99.90
27667;DHT22;15074;50.940;5.282;2022-08-07T02:10:52;13.60;99.90
27667;DHT22;15074;50.940;5.282;2022-08-07T02:13:25;13.70;99.90
27667;DHT22;15074;50.940;5.282;2022-08-07T02:15:52;13.70;99.90
27667;DHT22;15074;50.940;5.282;2022-08-07T02:18:19;13.70;99.90
27667;DHT22;15074;50.940;5.282;2022-08-07T02:20:49;13.50;99.90
27667;DHT22;15074;50.940;5.282;2022-08-07T02:23:17;13.50;99.90
27667;DHT22;15074;50.940;5.282;2022-08-07T02:25:44;13.40;99.90
27667;DHT22;15074;50.940;5.282;2022-08-07T02:28:13;13.30;99.90
27667;DHT22;15074;50.940;5.282;2022-08-07T02:30:39;13.20;99.90
27667;DHT22;15074;50.940;5.282;2022-08-07T02:33:06;12.90;99.90
27667;DHT22;15074;50.940;5.282;2022-08-07T02:35:33;12.60;99.90
27667;DHT22;15074;50.940;5.282;2022-08-07T02:38:01;12.80;99.90
27667;DHT22;15074;50.940;5.282;2022-08-07T02:40:29;12.90;99.90
27667;DHT22;15074;50.940;5.282;2022-08-07T02:42:56;13.00;99.90
27667;DHT22;15074;50.940;5.282;2022-08-07T02:45:26;12.90;99.90
27667;DHT22;15074;50.940;5.282;2022-08-07T02:47:52;12.60;99.90
27667;DHT22;15074;50.940;5.282;2022-08-07T02:50:18;12.50;99.90
27667;DHT22;15074;50.940;5.282;2022-08-07T02:53:07;12.40;99.90
27667;DHT22;15074;50.940;5.282;2022-08-07T02:55:34;12.40;99.90
27667;DHT22;15074;50.940;5.282;2022-08-07T02:58:04;12.30;99.90
27667;DHT22;15074;50.940;5.282;2022-08-07T03:00:33;12.40;99.90
27667;DHT22;15074;50.940;5.282;2022-08-07T03:03:00;12.40;99.90
27667;DHT22;15074;50.940;5.282;2022-08-07T03:05:27;12.30;99.90
27667;DHT22;15074;50.940;5.282;2022-08-07T03:07:54;12.30;99.90
27667;DHT22;15074;50.940;5.282;2022-08-07T03:10:21;12.20;99.90
27667;DHT22;15074;50.940;5.282;2022-08-07T03:12:49;12.10;99.90
27667;DHT22;15074;50.940;5.282;2022-08-07T03:15:15;12.10;99.90
27667;DHT22;15074;50.940;5.282;2022-08-07T03:17:41;12.10;99.90
27667;DHT22;15074;50.940;5.282;2022-08-07T03:20:08;12.30;99.90
27667;DHT22;15074;50.940;5.282;2022-08-07T03:22:35;12.50;99.90
27667;DHT22;15074;50.940;5.282;2022-08-07T03:25:02;12.40;99.90
27667;DHT22;15074;50.940;5.282;2022-08-07T03:27:28;12.20;99.90
27667;DHT22;15074;50.940;5.282;2022-08-07T03:29:54;12.20;99.90
27667;DHT22;15074;50.940;5.282;2022-08-07T03:32:26;12.30;99.90
27667;DHT22;15074;50.940;5.282;2022-08-07T03:34:58;12.20;99.90
27667;DHT22;15074;50.940;5.282;2022-08-07T03:37:24;12.10;99.90
27667;DHT22;15074;50.940;5.282;2022-08-07T03:39:52;12.10;99.90
27667;DHT22;15074;50.940;5.282;2022-08-07T03:42:19;12.10;99.90
27667;DHT22;15074;50.940;5.282;2022-08-07T03:44:45;12.00;99.90
27667;DHT22;15074;50.940;5.282;2022-08-07T03:47:12;11.90;99.90
27667;DHT22;15074;50.940;5.282;2022-08-07T03:49:38;11.80;99.90
27667;DHT22;15074;50.940;5.282;2022-08-07T03:52:05;11.60;99.90
27667;DHT22;15074;50.940;5.282;2022-08-07T03:54:33;11.50;99.90
27667;DHT22;15074;50.940;5.282;2022-08-07T03:57:00;11.50;99.90
27667;DHT22;15074;50.940;5.282;2022-08-07T03:59:26;11.40;99.90
27667;DHT22;15074;50.940;5.282;2022-08-07T04:01:53;11.30;99.90
27667;DHT22;15074;50.940;5.282;2022-08-07T04:04:20;11.40;99.90
27667;DHT22;15074;50.940;5.282;2022-08-07T04:06:46;11.30;99.90
27667;DHT22;15074;50.940;5.282;2022-08-07T04:09:12;11.30;99.90
27667;DHT22;15074;50.940;5.282;2022-08-07T04:11:38;11.10;99.90
27667;DHT22;15074;50.940;5.282;2022-08-07T04:14:05;11.20;99.90
27667;DHT22;15074;50.940;5.282;2022-08-07T04:16:31;11.60;99.90
27667;DHT22;15074;50.940;5.282;2022-08-07T04:18:58;11.50;99.90
27667;DHT22;15074;50.940;5.282;2022-08-07T04:21:24;11.60;99.90
27667;DHT22;15074;50.940;5.282;2022-08-07T04:23:50;11.60;99.90
27667;DHT22;15074;50.940;5.282;2022-08-07T04:26:16;11.60;99.90
27667;DHT22;15074;50.940;5.282;2022-08-07T04:28:42;11.70;99.90
27667;DHT22;15074;50.940;5.282;2022-08-07T04:31:08;11.90;99.90
27667;DHT22;15074;50.940;5.282;2022-08-07T04:33:35;12.00;99.90
27667;DHT22;15074;50.940;5.282;2022-08-07T04:36:02;12.10;99.90
27667;DHT22;15074;50.940;5.282;2022-08-07T04:38:28;12.00;99.90
27667;DHT22;15074;50.940;5.282;2022-08-07T04:40:54;11.80;99.90
27667;DHT22;15074;50.940;5.282;2022-08-07T04:43:29;11.70;99.90
27667;DHT22;15074;50.940;5.282;2022-08-07T04:46:12;11.60;99.90
27667;DHT22;15074;50.940;5.282;2022-08-07T04:51:26;11.30;99.90
27667;DHT22;15074;50.940;5.282;2022-08-07T04:56:45;11.20;99.90
27667;DHT22;15074;50.940;5.282;2022-08-07T04:59:20;11.60;99.90
27667;DHT22;15074;50.940;5.282;2022-08-07T05:02:19;11.70;99.90
27667;DHT22;15074;50.940;5.282;2022-08-07T05:04:56;11.90;99.90
27667;DHT22;15074;50.940;5.282;2022-08-07T05:10:05;12.10;99.90
27667;DHT22;15074;50.940;5.282;2022-08-07T05:12:58;12.20;99.90
27667;DHT22;15074;50.940;5.282;2022-08-07T05:15:31;12.40;99.90
27667;DHT22;15074;50.940;5.282;2022-08-07T05:18:02;12.60;99.90
27667;DHT22;15074;50.940;5.282;2022-08-07T05:20:32;12.90;99.90
27667;DHT22;15074;50.940;5.282;2022-08-07T05:23:04;13.30;99.90
27667;DHT22;15074;50.940;5.282;2022-08-07T05:25:31;13.70;99.90
27667;DHT22;15074;50.940;5.282;2022-08-07T05:27:58;14.50;99.90
27667;DHT22;15074;50.940;5.282;2022-08-07T05:30:25;15.40;99.90
27667;DHT22;15074;50.940;5.282;2022-08-07T05:32:52;16.80;99.90
27667;DHT22;15074;50.940;5.282;2022-08-07T05:35:18;18.10;99.90
27667;DHT22;15074;50.940;5.282;2022-08-07T05:37:45;19.20;99.90
27667;DHT22;15074;50.940;5.282;2022-08-07T05:40:12;20.10;99.90
27667;DHT22;15074;50.940;5.282;2022-08-07T05:42:38;20.80;99.90
27667;DHT22;15074;50.940;5.282;2022-08-07T05:45:05;21.50;99.90
27667;DHT22;15074;50.940;5.282;2022-08-07T05:47:31;21.60;99.90
27667;DHT22;15074;50.940;5.282;2022-08-07T05:49:58;22.20;99.90
27667;DHT22;15074;50.940;5.282;2022-08-07T05:52:24;22.50;99.90
27667;DHT22;15074;50.940;5.282;2022-08-07T05:54:50;22.70;99.90
27667;DHT22;15074;50.940;5.282;2022-08-07T05:57:16;22.60;99.90
27667;DHT22;15074;50.940;5.282;2022-08-07T05:59:43;22.20;99.90
27667;DHT22;15074;50.940;5.282;2022-08-07T06:02:13;22.80;99.90
27667;DHT22;15074;50.940;5.282;2022-08-07T06:04:46;23.50;99.90
27667;DHT22;15074;50.940;5.282;2022-08-07T06:07:13;24.40;99.90
27667;DHT22;15074;50.940;5.282;2022-08-07T06:09:40;25.00;99.90
27667;DHT22;15074;50.940;5.282;2022-08-07T06:12:06;24.70;99.90
27667;DHT22;15074;50.940;5.282;2022-08-07T06:14:32;24.30;99.90
27667;DHT22;15074;50.940;5.282;2022-08-07T06:16:58;23.80;99.90
27667;DHT22;15074;50.940;5.282;2022-08-07T06:19:25;24.60;99.90
27667;DHT22;15074;50.940;5.282;2022-08-07T06:21:52;25.30;99.90
27667;DHT22;15074;50.940;5.282;2022-08-07T06:24:19;25.70;99.90
27667;DHT22;15074;50.940;5.282;2022-08-07T06:26:44;25.00;99.90
27667;DHT22;15074;50.940;5.282;2022-08-07T06:29:10;25.40;99.90
27667;DHT22;15074;50.940;5.282;2022-08-07T06:31:36;24.50;99.90
27667;DHT22;15074;50.940;5.282;2022-08-07T06:34:01;25.00;99.90
27667;DHT22;15074;50.940;5.282;2022-08-07T06:36:27;24.90;99.90
27667;DHT22;15074;50.940;5.282;2022-08-07T06:38:53;24.60;99.90
27667;DHT22;15074;50.940;5.282;2022-08-07T06:41:32;25.80;99.90
27667;DHT22;15074;50.940;5.282;2022-08-07T06:44:01;26.50;99.90
27667;DHT22;15074;50.940;5.282;2022-08-07T06:46:27;26.00;99.90
27667;DHT22;15074;50.940;5.282;2022-08-07T06:48:53;26.50;99.90
27667;DHT22;15074;50.940;5.282;2022-08-07T06:51:23;26.40;98.90
27667;DHT22;15074;50.940;5.282;2022-08-07T06:53:52;26.60;98.40
27667;DHT22;15074;50.940;5.282;2022-08-07T06:56:20;26.50;98.80
27667;DHT22;15074;50.940;5.282;2022-08-07T06:59:15;28.00;96.30
27667;DHT22;15074;50.940;5.282;2022-08-07T07:01:41;28.00;96.00
27667;DHT22;15074;50.940;5.282;2022-08-07T07:04:07;29.50;94.40
27667;DHT22;15074;50.940;5.282;2022-08-07T07:06:33;28.70;93.40
27667;DHT22;15074;50.940;5.282;2022-08-07T07:12:03;29.00;93.70
27667;DHT22;15074;50.940;5.282;2022-08-07T07:17:38;29.50;92.20
27667;DHT22;15074;50.940;5.282;2022-08-07T07:20:12;29.80;91.90
27667;DHT22;15074;50.940;5.282;2022-08-07T07:22:40;30.60;90.40
27667;DHT22;15074;50.940;5.282;2022-08-07T07:25:07;29.90;90.40
27667;DHT22;15074;50.940;5.282;2022-08-07T07:27:35;30.90;90.10
27667;DHT22;15074;50.940;5.282;2022-08-07T07:30:05;30.50;88.00
27667;DHT22;15074;50.940;5.282;2022-08-07T07:32:33;30.50;88.80
27667;DHT22;15074;50.940;5.282;2022-08-07T07:35:03;31.20;88.10
27667;DHT22;15074;50.940;5.282;2022-08-07T07:37:32;31.80;84.60
27667;DHT22;15074;50.940;5.282;2022-08-07T07:40:05;31.00;85.70
27667;DHT22;15074;50.940;5.282;2022-08-07T07:42:32;30.60;84.40
27667;DHT22;15074;50.940;5.282;2022-08-07T07:45:03;30.10;86.90
27667;DHT22;15074;50.940;5.282;2022-08-07T07:47:30;30.50;85.80
27667;DHT22;15074;50.940;5.282;2022-08-07T07:49:58;29.10;87.50
27667;DHT22;15074;50.940;5.282;2022-08-07T07:52:25;28.80;89.60
27667;DHT22;15074;50.940;5.282;2022-08-07T07:54:53;29.90;88.90
27667;DHT22;15074;50.940;5.282;2022-08-07T07:57:21;30.90;86.00
27667;DHT22;15074;50.940;5.282;2022-08-07T07:59:48;31.00;85.80
27667;DHT22;15074;50.940;5.282;2022-08-07T08:02:16;30.80;84.50
27667;DHT22;15074;50.940;5.282;2022-08-07T08:04:44;31.50;83.10
27667;DHT22;15074;50.940;5.282;2022-08-07T08:07:10;32.50;80.80
27667;DHT22;15074;50.940;5.282;2022-08-07T08:09:37;33.00;78.60
27667;DHT22;15074;50.940;5.282;2022-08-07T08:12:04;34.20;77.70
27667;DHT22;15074;50.940;5.282;2022-08-07T08:14:34;33.20;75.70
27667;DHT22;15074;50.940;5.282;2022-08-07T08:17:01;32.70;76.00
27667;DHT22;15074;50.940;5.282;2022-08-07T08:19:28;32.90;76.50
27667;DHT22;15074;50.940;5.282;2022-08-07T08:21:56;32.20;76.80
27667;DHT22;15074;50.940;5.282;2022-08-07T08:24:44;33.20;75.70
27667;DHT22;15074;50.940;5.282;2022-08-07T08:27:32;33.50;74.10
27667;DHT22;15074;50.940;5.282;2022-08-07T08:32:31;33.70;73.30
27667;DHT22;15074;50.940;5.282;2022-08-07T08:34:59;31.20;77.40
27667;DHT22;15074;50.940;5.282;2022-08-07T08:37:30;31.60;77.20
27667;DHT22;15074;50.940;5.282;2022-08-07T08:40:00;32.60;75.60
27667;DHT22;15074;50.940;5.282;2022-08-07T08:42:33;33.40;74.20
27667;DHT22;15074;50.940;5.282;2022-08-07T08:45:17;33.00;75.10
27667;DHT22;15074;50.940;5.282;2022-08-07T08:54:15;34.60;70.20
27667;DHT22;15074;50.940;5.282;2022-08-07T08:56:47;34.10;70.40
27667;DHT22;15074;50.940;5.282;2022-08-07T08:59:24;34.50;69.10
27667;DHT22;15074;50.940;5.282;2022-08-07T09:04:50;34.80;70.00
27667;DHT22;15074;50.940;5.282;2022-08-07T09:10:10;34.60;65.40
27667;DHT22;15074;50.940;5.282;2022-08-07T09:26:22;34.10;66.30
27667;DHT22;15074;50.940;5.282;2022-08-07T09:28:54;35.00;63.70
27667;DHT22;15074;50.940;5.282;2022-08-07T09:31:42;35.20;62.80
27667;DHT22;15074;50.940;5.282;2022-08-07T09:34:19;35.90;61.50
27667;DHT22;15074;50.940;5.282;2022-08-07T09:51:16;34.20;61.20
27667;DHT22;15074;50.940;5.282;2022-08-07T09:53:50;35.10;59.00
27667;DHT22;15074;50.940;5.282;2022-08-07T09:56:28;35.10;58.70
27667;DHT22;15074;50.940;5.282;2022-08-07T10:02:31;35.80;57.40
27667;DHT22;15074;50.940;5.282;2022-08-07T10:13:09;34.70;56.40
27667;DHT22;15074;50.940;5.282;2022-08-07T10:23:33;35.10;56.80
27667;DHT22;15074;50.940;5.282;2022-08-07T10:29:06;37.10;53.20
27667;DHT22;15074;50.940;5.282;2022-08-07T10:31:50;37.90;52.10
27667;DHT22;15074;50.940;5.282;2022-08-07T10:44:45;35.30;53.50
27667;DHT22;15074;50.940;5.282;2022-08-07T10:47:46;35.20;52.90
27667;DHT22;15074;50.940;5.282;2022-08-07T10:50:22;34.60;53.40
27667;DHT22;15074;50.940;5.282;2022-08-07T10:52:57;33.70;54.10
27667;DHT22;15074;50.940;5.282;2022-08-07T10:55:48;33.20;55.40
27667;DHT22;15074;50.940;5.282;2022-08-07T11:01:18;35.20;54.00
27667;DHT22;15074;50.940;5.282;2022-08-07T11:03:54;34.60;53.80
27667;DHT22;15074;50.940;5.282;2022-08-07T11:06:27;35.50;53.50
27667;DHT22;15074;50.940;5.282;2022-08-07T11:09:21;36.20;51.70
27667;DHT22;15074;50.940;5.282;2022-08-07T11:12:12;36.10;50.90
27667;DHT22;15074;50.940;5.282;2022-08-07T11:14:45;34.00;52.20
27667;DHT22;15074;50.940;5.282;2022-08-07T11:17:36;32.90;54.10
27667;DHT22;15074;50.940;5.282;2022-08-07T11:20:07;30.30;58.20
27667;DHT22;15074;50.940;5.282;2022-08-07T11:22:45;31.40;55.80
27667;DHT22;15074;50.940;5.282;2022-08-07T11:25:24;32.70;54.30
27667;DHT22;15074;50.940;5.282;2022-08-07T11:28:07;34.30;52.80
27667;DHT22;15074;50.940;5.282;2022-08-07T11:30:46;33.00;53.00
27667;DHT22;15074;50.940;5.282;2022-08-07T11:36:25;33.90;53.40
27667;DHT22;15074;50.940;5.282;2022-08-07T11:39:12;34.50;52.80
27667;DHT22;15074;50.940;5.282;2022-08-07T11:41:46;32.80;55.20
27667;DHT22;15074;50.940;5.282;2022-08-07T11:44:21;34.00;53.30
27667;DHT22;15074;50.940;5.282;2022-08-07T11:47:05;34.40;52.00
27667;DHT22;15074;50.940;5.282;2022-08-07T11:57:54;34.10;51.60
27667;DHT22;15074;50.940;5.282;2022-08-07T12:00:49;32.90;53.10
27667;DHT22;15074;50.940;5.282;2022-08-07T12:09:16;33.70;53.10
27667;DHT22;15074;50.940;5.282;2022-08-07T12:14:30;34.30;52.70
27667;DHT22;15074;50.940;5.282;2022-08-07T12:17:10;33.20;53.60
27667;DHT22;15074;50.940;5.282;2022-08-07T12:23:00;34.10;52.40
27667;DHT22;15074;50.940;5.282;2022-08-07T12:28:19;32.40;53.60
27667;DHT22;15074;50.940;5.282;2022-08-07T12:30:49;31.30;53.70
27667;DHT22;15074;50.940;5.282;2022-08-07T12:33:19;31.40;54.30
27667;DHT22;15074;50.940;5.282;2022-08-07T12:35:48;33.00;54.60
27667;DHT22;15074;50.940;5.282;2022-08-07T12:38:16;34.60;51.90
27667;DHT22;15074;50.940;5.282;2022-08-07T12:40:45;36.00;50.20
27667;DHT22;15074;50.940;5.282;2022-08-07T12:43:13;36.10;50.60
27667;DHT22;15074;50.940;5.282;2022-08-07T12:46:19;34.40;52.30
27667;DHT22;15074;50.940;5.282;2022-08-07T12:51:23;35.40;52.40
27667;DHT22;15074;50.940;5.282;2022-08-07T12:56:58;35.10;51.60
27667;DHT22;15074;50.940;5.282;2022-08-07T12:59:28;35.50;51.40
27667;DHT22;15074;50.940;5.282;2022-08-07T13:02:47;35.70;50.50
27667;DHT22;15074;50.940;5.282;2022-08-07T13:11:00;31.70;54.50
27667;DHT22;15074;50.940;5.282;2022-08-07T13:19:05;34.70;53.10
27667;DHT22;15074;50.940;5.282;2022-08-07T13:21:39;35.30;51.40
27667;DHT22;15074;50.940;5.282;2022-08-07T13:24:22;35.60;51.00
27667;DHT22;15074;50.940;5.282;2022-08-07T13:32:09;35.80;50.30
27667;DHT22;15074;50.940;5.282;2022-08-07T13:37:26;35.70;51.30
27667;DHT22;15074;50.940;5.282;2022-08-07T13:40:24;35.20;51.20
27667;DHT22;15074;50.940;5.282;2022-08-07T13:42:52;34.20;52.10
27667;DHT22;15074;50.940;5.282;2022-08-07T13:45:19;34.20;52.90
27667;DHT22;15074;50.940;5.282;2022-08-07T13:47:46;34.40;52.10
27667;DHT22;15074;50.940;5.282;2022-08-07T13:50:19;33.90;53.50
27667;DHT22;15074;50.940;5.282;2022-08-07T13:52:47;34.50;52.40
27667;DHT22;15074;50.940;5.282;2022-08-07T13:55:15;34.40;52.20
27667;DHT22;15074;50.940;5.282;2022-08-07T13:57:45;33.10;54.20
27667;DHT22;15074;50.940;5.282;2022-08-07T14:00:13;32.40;54.40
27667;DHT22;15074;50.940;5.282;2022-08-07T14:02:41;31.90;55.00
27667;DHT22;15074;50.940;5.282;2022-08-07T14:05:10;32.30;55.50
27667;DHT22;15074;50.940;5.282;2022-08-07T14:07:42;33.10;54.40
27667;DHT22;15074;50.940;5.282;2022-08-07T14:10:10;32.90;54.10
27667;DHT22;15074;50.940;5.282;2022-08-07T14:12:54;33.60;53.70
27667;DHT22;15074;50.940;5.282;2022-08-07T14:15:28;33.80;53.70
27667;DHT22;15074;50.940;5.282;2022-08-07T14:20:45;33.60;54.10
27667;DHT22;15074;50.940;5.282;2022-08-07T14:23:16;33.10;53.60
27667;DHT22;15074;50.940;5.282;2022-08-07T14:25:45;33.60;54.00
27667;DHT22;15074;50.940;5.282;2022-08-07T14:28:13;33.80;53.10
27667;DHT22;15074;50.940;5.282;2022-08-07T14:30:45;33.30;53.50
27667;DHT22;15074;50.940;5.282;2022-08-07T14:33:13;32.80;53.50
27667;DHT22;15074;50.940;5.282;2022-08-07T14:35:41;32.80;53.10
27667;DHT22;15074;50.940;5.282;2022-08-07T14:38:07;32.80;53.30
27667;DHT22;15074;50.940;5.282;2022-08-07T14:40:34;32.60;53.30
27667;DHT22;15074;50.940;5.282;2022-08-07T14:43:08;32.10;53.90
27667;DHT22;15074;50.940;5.282;2022-08-07T14:45:46;32.20;53.80
27667;DHT22;15074;50.940;5.282;2022-08-07T14:48:16;31.80;54.60
27667;DHT22;15074;50.940;5.282;2022-08-07T14:50:52;30.90;56.00
27667;DHT22;15074;50.940;5.282;2022-08-07T14:53:23;31.50;56.10
27667;DHT22;15074;50.940;5.282;2022-08-07T14:55:51;31.60;55.70
27667;DHT22;15074;50.940;5.282;2022-08-07T14:58:23;31.20;55.10
27667;DHT22;15074;50.940;5.282;2022-08-07T15:00:50;31.10;55.40
27667;DHT22;15074;50.940;5.282;2022-08-07T15:03:20;29.00;58.00
27667;DHT22;15074;50.940;5.282;2022-08-07T15:05:47;28.00;59.20
27667;DHT22;15074;50.940;5.282;2022-08-07T15:08:21;27.90;59.90
27667;DHT22;15074;50.940;5.282;2022-08-07T15:11:05;28.30;59.60
27667;DHT22;15074;50.940;5.282;2022-08-07T15:13:34;28.50;59.00
27667;DHT22;15074;50.940;5.282;2022-08-07T15:16:05;28.50;58.70
27667;DHT22;15074;50.940;5.282;2022-08-07T15:18:39;28.40;58.80
27667;DHT22;15074;50.940;5.282;2022-08-07T15:21:14;28.30;58.90
27667;DHT22;15074;50.940;5.282;2022-08-07T15:23:41;28.40;58.70
27667;DHT22;15074;50.940;5.282;2022-08-07T15:26:10;27.90;59.20
27667;DHT22;15074;50.940;5.282;2022-08-07T15:28:37;28.00;59.60
27667;DHT22;15074;50.940;5.282;2022-08-07T15:31:08;28.00;59.00
27667;DHT22;15074;50.940;5.282;2022-08-07T15:33:38;28.10;59.50
27667;DHT22;15074;50.940;5.282;2022-08-07T15:36:05;27.90;59.70
27667;DHT22;15074;50.940;5.282;2022-08-07T15:38:34;28.00;59.30
27667;DHT22;15074;50.940;5.282;2022-08-07T15:41:08;28.00;60.00
27667;DHT22;15074;50.940;5.282;2022-08-07T15:43:35;27.90;60.40
27667;DHT22;15074;50.940;5.282;2022-08-07T15:46:19;27.80;60.30
27667;DHT22;15074;50.940;5.282;2022-08-07T15:48:48;27.70;61.30
27667;DHT22;15074;50.940;5.282;2022-08-07T15:51:15;27.40;61.20
27667;DHT22;15074;50.940;5.282;2022-08-07T15:53:48;27.30;61.70
27667;DHT22;15074;50.940;5.282;2022-08-07T15:56:15;27.30;61.80
27667;DHT22;15074;50.940;5.282;2022-08-07T16:01:26;27.40;62.20
27667;DHT22;15074;50.940;5.282;2022-08-07T16:03:55;27.30;62.40
27667;DHT22;15074;50.940;5.282;2022-08-07T16:06:28;27.40;61.70
27667;DHT22;15074;50.940;5.282;2022-08-07T16:08:56;27.40;62.10
27667;DHT22;15074;50.940;5.282;2022-08-07T16:14:52;27.00;63.00
27667;DHT22;15074;50.940;5.282;2022-08-07T16:20:25;26.80;63.70
27667;DHT22;15074;50.940;5.282;2022-08-07T16:31:06;26.60;64.80
27667;DHT22;15074;50.940;5.282;2022-08-07T16:33:38;26.60;64.50
27667;DHT22;15074;50.940;5.282;2022-08-07T16:38:58;26.70;63.70
27667;DHT22;15074;50.940;5.282;2022-08-07T16:44:33;26.50;64.10
27667;DHT22;15074;50.940;5.282;2022-08-07T17:04:21;26.20;65.70
27667;DHT22;15074;50.940;5.282;2022-08-07T17:07:12;26.40;65.60
27667;DHT22;15074;50.940;5.282;2022-08-07T17:10:06;26.30;65.30
27667;DHT22;15074;50.940;5.282;2022-08-07T17:13:02;26.20;64.60
27667;DHT22;15074;50.940;5.282;2022-08-07T17:15:35;26.20;64.60
27667;DHT22;15074;50.940;5.282;2022-08-07T17:21:03;26.00;64.70
27667;DHT22;15074;50.940;5.282;2022-08-07T17:23:53;26.00;65.10
27667;DHT22;15074;50.940;5.282;2022-08-07T17:26:29;25.90;65.60
27667;DHT22;15074;50.940;5.282;2022-08-07T17:34:40;25.40;66.50
27667;DHT22;15074;50.940;5.282;2022-08-07T17:37:33;25.40;67.20
27667;DHT22;15074;50.940;5.282;2022-08-07T17:40:09;25.50;66.00
27667;DHT22;15074;50.940;5.282;2022-08-07T17:42:52;25.50;66.70
27667;DHT22;15074;50.940;5.282;2022-08-07T17:45:21;25.30;67.30
27667;DHT22;15074;50.940;5.282;2022-08-07T17:53:07;25.20;68.70
27667;DHT22;15074;50.940;5.282;2022-08-07T17:55:37;25.10;68.80
27667;DHT22;15074;50.940;5.282;2022-08-07T17:58:23;25.00;69.40
27667;DHT22;15074;50.940;5.282;2022-08-07T18:00:55;25.10;69.60
27667;DHT22;15074;50.940;5.282;2022-08-07T18:03:26;25.10;69.70
27667;DHT22;15074;50.940;5.282;2022-08-07T18:06:08;25.10;70.10
27667;DHT22;15074;50.940;5.282;2022-08-07T18:13:45;25.00;71.00
27667;DHT22;15074;50.940;5.282;2022-08-07T18:18:54;24.80;71.40
27667;DHT22;15074;50.940;5.282;2022-08-07T18:21:31;24.70;72.10
27667;DHT22;15074;50.940;5.282;2022-08-07T18:24:05;24.70;72.30
27667;DHT22;15074;50.940;5.282;2022-08-07T18:29:18;24.50;73.70
27667;DHT22;15074;50.940;5.282;2022-08-07T18:32:07;24.30;73.90
27667;DHT22;15074;50.940;5.282;2022-08-07T18:35:20;24.30;73.80
27667;DHT22;15074;50.940;5.282;2022-08-07T18:38:17;24.30;74.00
27667;DHT22;15074;50.940;5.282;2022-08-07T18:48:53;23.80;75.20
27667;DHT22;15074;50.940;5.282;2022-08-07T19:00:03;23.70;75.30
27667;DHT22;15074;50.940;5.282;2022-08-07T19:02:41;23.70;75.20
27667;DHT22;15074;50.940;5.282;2022-08-07T19:08:17;23.50;76.40
27667;DHT22;15074;50.940;5.282;2022-08-07T19:10:52;23.40;76.40
27667;DHT22;15074;50.940;5.282;2022-08-07T19:21:54;22.90;78.00
27667;DHT22;15074;50.940;5.282;2022-08-07T19:24:46;22.80;78.30
27667;DHT22;15074;50.940;5.282;2022-08-07T19:27:16;22.70;78.60
27667;DHT22;15074;50.940;5.282;2022-08-07T19:29:50;22.70;78.80
27667;DHT22;15074;50.940;5.282;2022-08-07T19:32:17;22.70;79.20
27667;DHT22;15074;50.940;5.282;2022-08-07T19:34:51;22.50;79.20
27667;DHT22;15074;50.940;5.282;2022-08-07T19:37:19;22.50;79.70
27667;DHT22;15074;50.940;5.282;2022-08-07T19:39:53;22.40;80.20
27667;DHT22;15074;50.940;5.282;2022-08-07T19:42:19;22.40;81.30
27667;DHT22;15074;50.940;5.282;2022-08-07T19:44:46;22.20;82.30
27667;DHT22;15074;50.940;5.282;2022-08-07T19:47:15;22.00;83.40
27667;DHT22;15074;50.940;5.282;2022-08-07T19:49:46;21.90;84.30
27667;DHT22;15074;50.940;5.282;2022-08-07T19:52:15;22.00;84.80
27667;DHT22;15074;50.940;5.282;2022-08-07T19:54:42;21.80;85.70